Time;durP1;ratioP1;P1;durP2;ratioP2;P2;SDS_P1;SDS_P2;PMS_P1;PMS_P2;Temp;Humidity;BMP_temperature;BMP_pressure;BME280_temperature;BME280_humidity;BME280_pressure;Samples;Min_cycle;Max_cycle;Signal;HPM_P1;HPM_P2
2024/01/30 00:00:07;;;;;;;10.00;6.65;;;;;;;11.50;71.32;103172.13;143717;598;46008;-76
2024/01/30 00:02:34;;;;;;;9.25;5.95;;;;;;;11.43;72.02;103169.16;143714;568;47004;-75
2024/01/30 00:05:00;;;;;;;6.75;4.90;;;;;;;11.25;73.23;103185.19;143720;602;46922;-76
2024/01/30 00:07:27;;;;;;;7.80;4.25;;;;;;;11.20;73.99;103190.13;143718;614;47002;-77
2024/01/30 00:09:54;;;;;;;9.02;4.45;;;;;;;11.19;74.42;103183.91;143720;574;47006;-76
2024/01/30 00:12:20;;;;;;;6.68;5.00;;;;;;;11.20;74.70;103180.25;143715;658;47004;-77
2024/01/30 00:14:47;;;;;;;7.60;5.60;;;;;;;11.14;74.26;103185.31;143717;594;47007;-76
2024/01/30 00:17:13;;;;;;;16.73;12.25;;;;;;;11.29;74.82;103208.12;143718;568;47008;-76
2024/01/30 00:19:39;;;;;;;32.53;21.48;;;;;;;11.41;75.27;103205.28;143716;642;47006;-76
2024/01/30 00:22:05;;;;;;;9.20;6.85;;;;;;;11.38;75.00;103201.03;143717;615;47002;-74
2024/01/30 00:24:32;;;;;;;11.77;7.25;;;;;;;11.27;74.70;103193.97;143718;668;47011;-75
2024/01/30 00:26:58;;;;;;;8.70;6.53;;;;;;;11.09;75.22;103199.19;143719;600;47004;-75
2024/01/30 00:29:25;;;;;;;9.70;6.05;;;;;;;10.91;76.39;103193.66;143720;663;47002;-75
2024/01/30 00:31:52;;;;;;;6.22;4.93;;;;;;;11.00;77.06;103186.59;143723;609;47002;-75
2024/01/30 00:34:18;;;;;;;8.05;5.85;;;;;;;11.13;77.98;103221.25;143718;654;46921;-75
2024/01/30 00:36:45;;;;;;;18.87;12.05;;;;;;;11.23;78.68;103214.06;143716;569;47004;-76
2024/01/30 00:39:11;;;;;;;13.52;8.57;;;;;;;11.12;80.32;103200.75;143717;614;47006;-77
2024/01/30 00:41:38;;;;;;;8.10;5.43;;;;;;;11.11;80.30;103209.81;143717;658;47002;-76
2024/01/30 00:44:04;;;;;;;6.10;4.75;;;;;;;11.07;77.19;103193.09;143721;634;46022;-75
2024/01/30 00:46:31;;;;;;;5.37;3.80;;;;;;;11.10;76.72;103194.69;143713;601;47926;-75
2024/01/30 00:48:57;;;;;;;5.03;3.55;;;;;;;11.06;75.16;103181.50;143719;672;46006;-75
2024/01/30 00:51:24;;;;;;;7.25;4.80;;;;;;;11.12;75.22;103182.78;143721;593;47004;-75
2024/01/30 00:53:50;;;;;;;5.53;4.35;;;;;;;11.16;75.60;103191.41;143719;617;47011;-75
2024/01/30 00:56:18;;;;;;;7.68;5.78;;;;;;;11.16;79.51;103200.34;143718;619;47004;-76
2024/01/30 00:58:44;;;;;;;17.73;11.63;;;;;;;11.16;82.35;103194.09;143722;600;47006;-75
2024/01/30 01:01:11;;;;;;;11.80;8.13;;;;;;;11.11;80.53;103197.22;143716;578;47005;-75
2024/01/30 01:03:37;;;;;;;7.82;5.65;;;;;;;11.13;79.68;103197.06;143717;599;47010;-75
2024/01/30 01:06:04;;;;;;;8.35;5.65;;;;;;;11.11;78.99;103193.69;143715;583;47004;-75
2024/01/30 01:08:30;;;;;;;9.32;6.65;;;;;;;11.12;81.78;103181.94;143721;576;47007;-76
2024/01/30 01:10:57;;;;;;;8.60;6.43;;;;;;;11.07;80.62;103172.44;143715;568;47008;-75
2024/01/30 01:13:23;;;;;;;9.82;6.60;;;;;;;11.05;81.17;103170.88;143720;586;46922;-75
2024/01/30 01:15:49;;;;;;;8.35;6.43;;;;;;;11.07;81.43;103179.66;143717;588;47005;-78
2024/01/30 01:18:16;;;;;;;54.78;37.85;;;;;;;11.13;83.97;103191.69;143717;616;46920;-76
2024/01/30 01:20:42;;;;;;;26.37;19.20;;;;;;;11.13;83.17;103176.41;143716;566;47002;-75
2024/01/30 01:23:08;;;;;;;8.95;6.87;;;;;;;11.03;82.59;103176.41;143712;611;47010;-74
2024/01/30 01:25:35;;;;;;;9.85;6.30;;;;;;;11.12;82.47;103182.78;143718;620;47004;-75
2024/01/30 01:28:01;;;;;;;10.05;6.15;;;;;;;11.16;81.98;103188.72;143715;610;47004;-76
2024/01/30 01:30:29;;;;;;;18.50;13.30;;;;;;;11.11;81.19;103194.53;143715;591;47004;-76
2024/01/30 01:32:56;;;;;;;20.88;14.93;;;;;;;11.09;83.40;103196.50;143715;645;47922;-75
2024/01/30 01:35:26;;;;;;;7.15;5.37;;;;;;;11.03;80.98;103189.00;143716;566;47004;-74
2024/01/30 01:37:56;;;;;;;4.57;2.58;;;;;;;11.07;76.25;103179.66;143722;573;46920;-75
2024/01/30 01:40:28;;;;;;;5.18;2.25;;;;;;;11.13;75.72;103176.41;143717;608;47002;-75
2024/01/30 01:42:56;;;;;;;3.85;2.55;;;;;;;11.17;74.05;103176.97;143720;591;47010;-75
2024/01/30 01:45:22;;;;;;;3.67;2.65;;;;;;;11.23;74.45;103189.84;143719;619;47002;-76
2024/01/30 01:47:51;;;;;;;4.82;2.83;;;;;;;11.16;77.95;103191.41;143722;623;47006;-76
2024/01/30 01:50:20;;;;;;;8.20;4.15;;;;;;;11.15;79.77;103184.31;143713;608;48000;-76
2024/01/30 01:52:50;;;;;;;40.00;19.73;;;;;;;11.12;79.05;103172.00;143719;568;47010;-76
2024/01/30 01:55:21;;;;;;;9.20;5.05;;;;;;;11.10;77.27;103178.53;143715;581;47004;-76
2024/01/30 01:57:48;;;;;;;5.68;3.80;;;;;;;11.12;76.74;103179.25;143721;597;46919;-76
2024/01/30 04:00:31;;;;;;;2.90;1.90;;;;;;;10.63;65.93;103094.00;143731;608;46013;-75
2024/01/30 04:02:57;;;;;;;2.58;2.00;;;;;;;10.68;66.06;103089.06;143721;607;47008;-76
2024/01/30 04:05:24;;;;;;;2.22;1.80;;;;;;;10.82;64.63;103068.13;143723;614;47006;-74
2024/01/30 04:07:50;;;;;;;3.45;2.20;;;;;;;10.81;64.90;103079.88;143717;570;47002;-74
2024/01/30 04:10:16;;;;;;;4.00;2.35;;;;;;;10.80;66.07;103087.09;143721;574;46920;-76
2024/01/30 04:12:43;;;;;;;3.55;1.60;;;;;;;10.84;63.21;103076.91;143722;583;47008;-76
2024/01/30 04:15:09;;;;;;;3.08;1.55;;;;;;;10.96;62.61;103067.69;143720;593;47006;-76
2024/01/30 04:20:57;;;;;;;4.53;2.22;;;;;;;10.99;64.50;103059.34;143719;614;47010;-76
2024/01/30 04:23:23;;;;;;;4.85;1.70;;;;;;;10.90;64.53;103068.28;143714;597;47004;-76
2024/01/30 04:25:49;;;;;;;3.30;1.95;;;;;;;10.96;61.25;103064.16;143724;605;47006;-77
2024/01/30 04:28:16;;;;;;;3.50;2.00;;;;;;;10.99;61.53;103080.84;143720;628;47004;-77
2024/01/30 04:30:42;;;;;;;2.25;1.50;;;;;;;11.02;59.88;103080.56;143721;586;47008;-77
2024/01/30 04:33:10;;;;;;;2.85;1.30;;;;;;;11.06;59.28;103073.06;143715;588;47004;-76
2024/01/30 04:35:36;;;;;;;2.20;1.67;;;;;;;11.13;59.48;103092.16;143724;573;46006;-75
2024/01/30 04:38:03;;;;;;;4.68;1.65;;;;;;;11.24;59.26;103086.63;143725;659;47002;-76
2024/01/30 04:40:29;;;;;;;2.87;2.00;;;;;;;11.34;57.44;103081.25;143719;585;47006;-75
2024/01/30 04:42:55;;;;;;;3.60;1.95;;;;;;;11.22;57.60;103077.87;143717;611;47004;-75
2024/01/30 04:45:22;;;;;;;3.65;2.35;;;;;;;11.20;57.66;103088.78;143723;590;47006;-75
2024/01/30 04:47:48;;;;;;;2.75;1.62;;;;;;;11.31;58.58;103081.53;143721;576;47002;-76
2024/01/30 04:50:14;;;;;;;3.83;2.42;;;;;;;11.34;57.29;103084.75;143723;671;46920;-75
2024/01/30 04:52:41;;;;;;;3.60;2.55;;;;;;;11.34;57.70;103081.25;143719;568;47004;-76
2024/01/30 04:55:08;;;;;;;3.75;2.10;;;;;;;11.21;57.76;103081.53;143721;581;47006;-76
2024/01/30 04:57:34;;;;;;;4.20;1.90;;;;;;;11.03;58.69;103087.66;143714;617;47002;-76
2024/01/30 05:00:00;;;;;;;3.12;2.30;;;;;;;11.05;60.53;103098.25;143719;605;47008;-76
2024/01/30 05:02:27;;;;;;;6.87;2.70;;;;;;;11.00;60.56;103096.00;143720;582;47008;-76
2024/01/30 05:04:54;;;;;;;3.42;2.62;;;;;;;10.93;60.63;103092.19;143723;607;47006;-75
2024/01/30 05:07:20;;;;;;;2.67;2.20;;;;;;;10.94;59.64;103099.28;143723;573;47008;-77
2024/01/30 05:09:47;;;;;;;3.42;2.20;;;;;;;10.79;58.58;103101.53;143718;590;47919;-77
2024/01/30 05:12:13;;;;;;;3.35;1.80;;;;;;;10.84;58.07;103119.91;143711;630;48004;-75
2024/01/30 05:14:39;;;;;;;4.53;1.58;;;;;;;10.86;58.45;103112.56;143723;579;46006;-77
2024/01/30 05:17:06;;;;;;;4.30;2.37;;;;;;;10.90;59.01;103116.69;143722;723;47002;-76
2024/01/30 05:19:32;;;;;;;3.78;2.00;;;;;;;10.86;59.58;103116.09;143718;594;47010;-76
2024/01/30 05:21:59;;;;;;;4.90;2.00;;;;;;;10.88;58.85;103126.72;143715;674;47005;-78
2024/01/30 05:24:25;;;;;;;3.60;1.92;;;;;;;10.78;58.43;103132.09;143721;614;47006;-77
2024/01/30 05:26:51;;;;;;;2.75;2.00;;;;;;;10.66;59.98;103146.66;143721;588;47004;-78
2024/01/30 05:29:17;;;;;;;3.00;2.20;;;;;;;10.89;59.29;103131.94;143720;656;47004;-77
2024/01/30 05:31:44;;;;;;;3.40;2.50;;;;;;;10.87;59.25;103138.47;143716;589;47004;-77
2024/01/30 05:34:10;;;;;;;3.83;1.55;;;;;;;10.88;57.02;103145.53;143721;654;47006;-78
2024/01/30 05:36:37;;;;;;;3.15;2.12;;;;;;;10.87;58.20;103147.38;143721;592;47004;-78
2024/01/30 05:39:03;;;;;;;2.90;1.80;;;;;;;11.03;58.72;103144.13;143717;614;47008;-77
2024/01/30 05:41:29;;;;;;;2.28;1.90;;;;;;;11.02;57.85;103131.66;143720;592;47004;-76
2024/01/30 05:43:56;;;;;;;4.70;2.62;;;;;;;11.06;59.22;103130.41;143723;617;47006;-76
2024/01/30 05:46:22;;;;;;;4.50;2.25;;;;;;;11.09;59.14;103147.25;143718;672;47002;-76
2024/01/30 05:48:48;;;;;;;3.25;2.10;;;;;;;11.07;58.84;103155.44;143719;605;47008;-73
2024/01/30 05:51:15;;;;;;;6.40;2.47;;;;;;;11.13;59.37;103157.56;143721;621;47004;-75
2024/01/30 05:53:41;;;;;;;2.05;1.58;;;;;;;11.07;59.28;103147.38;143723;614;47006;-76
2024/01/30 05:56:08;;;;;;;2.62;1.77;;;;;;;11.13;59.11;103137.88;143721;598;47002;-76
2024/01/30 05:58:34;;;;;;;3.10;1.70;;;;;;;11.16;59.09;103153.75;143724;605;46008;-76
2024/01/30 06:01:00;;;;;;;5.30;1.70;;;;;;;11.20;57.81;103147.09;143720;648;47004;-76
2024/01/30 06:03:26;;;;;;;2.22;1.48;;;;;;;11.18;57.57;103149.94;143722;598;47006;-77
2024/01/30 06:05:53;;;;;;;4.20;1.95;;;;;;;11.29;57.54;103145.37;143721;573;47007;-77
2024/01/30 06:08:19;;;;;;;4.32;2.60;;;;;;;11.21;58.76;103151.47;143719;631;47008;-76
2024/01/30 06:10:45;;;;;;;4.75;3.35;;;;;;;11.27;59.71;103142.84;143717;596;47004;-73
2024/01/30 06:13:11;;;;;;;10.02;6.20;;;;;;;11.35;59.61;103142.13;143723;584;47007;-74
2024/01/30 06:15:38;;;;;;;6.82;4.55;;;;;;;11.29;58.42;103148.94;143718;587;47000;-75
2024/01/30 06:18:04;;;;;;;8.65;3.75;;;;;;;11.30;57.95;103142.53;143721;666;47008;-73
2024/01/30 06:20:31;;;;;;;3.72;2.70;;;;;;;11.35;57.98;103123.28;143719;588;47005;-74
2024/01/30 06:22:57;;;;;;;6.95;2.40;;;;;;;11.38;57.80;103139.16;143723;594;46006;-75
2024/01/30 06:25:24;;;;;;;3.47;2.25;;;;;;;11.36;58.32;103141.13;143720;669;47002;-74
2024/01/30 06:27:50;;;;;;;2.92;1.58;;;;;;;11.35;58.30;103147.50;143722;573;46018;-75
2024/01/30 06:30:16;;;;;;;5.32;2.58;;;;;;;11.33;58.30;103150.31;143722;663;47004;-74
2024/01/30 06:32:43;;;;;;;2.97;2.17;;;;;;;11.34;57.71;103160.09;143720;682;47006;-75
2024/01/30 06:35:10;;;;;;;5.03;3.03;;;;;;;11.32;58.97;103153.19;143718;650;47004;-74
2024/01/30 06:37:37;;;;;;;5.70;3.60;;;;;;;11.32;59.11;103153.19;143718;580;47010;-75
2024/01/30 06:40:05;;;;;;;6.90;5.35;;;;;;;11.29;59.20;103156.16;143724;639;46019;-75
2024/01/30 06:42:31;;;;;;;7.18;4.07;;;;;;;11.30;59.19;103158.69;143722;617;47007;-73
2024/01/30 06:44:57;;;;;;;5.90;3.30;;;;;;;11.32;59.78;103159.38;143720;665;47002;-73
2024/01/30 06:47:24;;;;;;;4.57;2.87;;;;;;;11.33;59.62;103162.94;143721;604;47008;-75
2024/01/30 06:49:50;;;;;;;4.93;3.58;;;;;;;11.38;60.27;103158.81;143719;575;47004;-72
2024/01/30 06:52:16;;;;;;;5.62;2.70;;;;;;;11.30;59.64;103153.31;143721;615;46006;-73
2024/01/30 06:54:43;;;;;;;3.85;2.45;;;;;;;11.38;59.47;103144.53;143725;606;47002;-72
2024/01/30 06:57:11;;;;;;;5.82;4.25;;;;;;;11.40;59.70;103136.31;143717;577;47009;-71
2024/01/30 06:59:44;;;;;;;7.03;4.35;;;;;;;11.41;59.88;103148.78;143713;587;48004;-76
2024/01/30 07:02:10;;;;;;;5.18;4.05;;;;;;;11.46;59.98;103149.19;143722;588;46006;-77
2024/01/30 07:04:37;;;;;;;6.53;4.35;;;;;;;11.52;59.65;103146.78;143720;577;47004;-77
2024/01/30 07:07:05;;;;;;;9.77;5.00;;;;;;;11.51;58.88;103147.78;143721;598;47008;-76
2024/01/30 07:09:31;;;;;;;6.20;3.83;;;;;;;11.48;59.04;103149.88;143712;668;50018;-76
2024/01/30 07:11:58;;;;;;;5.03;3.65;;;;;;;11.49;59.25;103151.56;143721;580;47007;-77
2024/01/30 07:14:25;;;;;;;7.53;3.70;;;;;;;11.50;59.24;103158.66;143720;574;47002;-78
2024/01/30 07:16:51;;;;;;;3.58;2.50;;;;;;;11.43;58.92;103165.63;143718;623;47010;-77
2024/01/30 07:19:17;;;;;;;21.48;8.27;;;;;;;11.45;59.11;103172.56;143717;683;47008;-75
2024/01/30 07:21:44;;;;;;;23.62;8.98;;;;;;;11.55;59.29;103171.72;143717;584;47006;-77
2024/01/30 07:24:10;;;;;;;10.85;7.37;;;;;;;11.59;59.80;103165.00;143713;576;47004;-76
2024/01/30 07:26:36;;;;;;;3.95;2.83;;;;;;;11.61;59.86;103160.34;143713;663;47004;-76
2024/01/30 07:29:03;;;;;;;6.22;4.28;;;;;;;11.62;60.10;103173.66;143717;645;47004;-77
2024/01/30 07:31:29;;;;;;;4.97;2.72;;;;;;;11.64;60.36;103178.91;143719;589;46006;-76
2024/01/30 07:33:56;;;;;;;7.68;5.05;;;;;;;11.62;60.90;103181.75;143721;669;47002;-76
2024/01/30 07:36:22;;;;;;;5.37;3.53;;;;;;;11.55;59.95;103179.78;143720;584;47011;-76
2024/01/30 07:38:49;;;;;;;8.90;5.03;;;;;;;11.65;60.22;103183.28;143720;624;47002;-76
2024/01/30 07:41:15;;;;;;;6.55;4.95;;;;;;;11.77;62.15;103182.13;143721;616;46006;-75
2024/01/30 07:43:41;;;;;;;7.07;2.95;;;;;;;11.73;58.96;103191.50;143718;629;47002;-75
2024/01/30 07:46:07;;;;;;;2.55;1.90;;;;;;;11.67;57.28;103184.84;143720;641;47010;-74
2024/01/30 07:48:34;;;;;;;5.65;2.40;;;;;;;11.65;58.49;103184.12;143712;572;47004;-75
2024/01/30 07:51:00;;;;;;;5.25;4.00;;;;;;;11.73;58.33;103185.25;143719;574;47006;-75
2024/01/30 07:53:27;;;;;;;6.65;4.65;;;;;;;11.77;58.19;103175.91;143716;672;47002;-75
2024/01/30 07:55:54;;;;;;;8.95;5.50;;;;;;;11.75;56.71;103176.03;143719;574;47007;-76
2024/01/30 07:58:20;;;;;;;21.12;11.07;;;;;;;11.79;56.46;103173.91;143717;597;47009;-75
2024/01/30 08:00:46;;;;;;;20.60;10.82;;;;;;;11.62;56.50;103173.66;143717;623;46006;-76
2024/01/30 08:03:13;;;;;;;7.75;5.03;;;;;;;11.66;56.48;103185.81;143715;633;47004;-75
2024/01/30 08:05:39;;;;;;;3.90;3.12;;;;;;;11.78;56.16;103191.06;143720;658;47011;-75
2024/01/30 08:08:06;;;;;;;5.70;4.25;;;;;;;11.90;55.78;103189.06;143717;588;47004;-76
2024/01/30 08:10:32;;;;;;;2.50;2.20;;;;;;;11.75;54.91;103180.56;143718;572;46011;-75
2024/01/30 08:12:59;;;;;;;2.80;1.77;;;;;;;11.92;54.13;103195.09;143713;649;47005;-74
2024/01/30 08:15:25;;;;;;;2.83;1.80;;;;;;;11.96;54.24;103174.97;143721;590;47010;-76
2024/01/30 08:17:56;;;;;;;4.12;2.15;;;;;;;12.05;53.00;103186.75;143718;731;47004;-73
2024/01/30 08:20:22;;;;;;;3.55;2.45;;;;;;;12.09;53.33;103185.47;143719;616;47006;-76
2024/01/30 08:22:49;;;;;;;2.03;1.50;;;;;;;12.09;52.88;103188.16;143720;568;47004;-74
2024/01/30 08:25:15;;;;;;;17.62;8.70;;;;;;;12.11;54.01;103188.84;143717;705;47010;-76
2024/01/30 08:27:42;;;;;;;9.90;5.90;;;;;;;11.99;53.43;103174.72;143715;622;47008;-74
2024/01/30 08:30:09;;;;;;;12.13;7.62;;;;;;;12.00;54.15;103194.44;143716;655;47006;-75
2024/01/30 08:32:35;;;;;;;9.77;5.43;;;;;;;12.04;53.46;103190.44;143713;650;47004;-74
2024/01/30 08:35:04;;;;;;;5.97;2.78;;;;;;;12.14;52.66;103191.25;143716;623;47009;-77
2024/01/30 08:37:31;;;;;;;3.95;3.05;;;;;;;12.16;52.94;103199.19;143716;657;47004;-76
2024/01/30 08:39:57;;;;;;;3.60;2.30;;;;;;;12.18;52.53;103198.03;143718;580;46020;-76
2024/01/30 08:42:24;;;;;;;3.33;2.10;;;;;;;12.03;51.67;103186.91;143723;601;47004;-77
2024/01/30 08:44:51;;;;;;;4.90;2.67;;;;;;;11.96;51.79;103193.84;143716;661;47008;-76
2024/01/30 08:47:18;;;;;;;3.22;2.50;;;;;;;11.93;52.19;103180.66;143719;572;47004;-76
2024/01/30 08:49:44;;;;;;;19.05;13.55;;;;;;;12.06;52.42;103212.69;143717;569;47006;-77
2024/01/30 08:52:11;;;;;;;12.55;9.80;;;;;;;12.11;51.08;103196.94;143715;609;47004;-76
2024/01/30 08:54:38;;;;;;;9.15;6.18;;;;;;;12.17;51.28;103211.66;143718;610;47008;-75
2024/01/30 08:57:04;;;;;;;4.47;3.40;;;;;;;12.20;51.38;103209.50;143717;610;47004;-76
2024/01/30 08:59:31;;;;;;;4.87;3.10;;;;;;;12.11;50.86;103197.78;143717;596;47006;-76
2024/01/30 09:01:59;;;;;;;8.57;5.20;;;;;;;12.18;51.32;103202.59;143715;611;47002;-76
2024/01/30 09:04:25;;;;;;;7.00;2.97;;;;;;;12.01;51.59;103204.19;143718;573;47010;-78
2024/01/30 09:06:51;;;;;;;2.60;1.92;;;;;;;12.07;49.61;103188.31;143718;575;47004;-75
2024/01/30 09:09:18;;;;;;;5.32;3.50;;;;;;;12.27;50.09;103197.16;143721;650;47006;-78
2024/01/30 09:11:45;;;;;;;3.72;2.10;;;;;;;12.33;50.16;103184.09;143719;643;47004;-76
2024/01/30 09:14:11;;;;;;;6.18;3.22;;;;;;;12.33;50.47;103189.47;143719;629;47010;-76
2024/01/30 09:16:38;;;;;;;4.95;4.00;;;;;;;12.30;50.24;103193.31;143718;576;47004;-77
2024/01/30 09:19:04;;;;;;;7.03;3.53;;;;;;;12.55;50.14;103186.37;143716;567;47006;-77
2024/01/30 09:21:30;;;;;;;6.87;3.33;;;;;;;12.85;50.54;103191.56;143719;638;47002;-77
2024/01/30 09:24:03;;;;;;;5.85;3.15;;;;;;;12.63;51.67;103185.59;143715;628;47006;-78
2024/01/30 09:26:30;;;;;;;6.10;2.95;;;;;;;12.58;51.80;103174.44;143712;573;47924;-77
2024/01/30 09:28:56;;;;;;;9.30;3.33;;;;;;;13.98;51.02;103177.47;143718;664;47006;-76
2024/01/30 09:31:23;;;;;;;3.40;2.40;;;;;;;13.40;50.72;103181.63;143723;591;46006;-77
2024/01/30 09:33:51;;;;;;;6.47;3.00;;;;;;;13.31;51.33;103186.09;143719;645;47010;-77
2024/01/30 09:36:19;;;;;;;6.55;3.30;;;;;;;15.37;50.95;103171.72;143714;642;48002;-78
2024/01/30 09:38:46;;;;;;;5.30;4.47;;;;;;;15.26;51.11;103168.34;143721;616;47006;-75
2024/01/30 09:41:12;;;;;;;7.95;3.90;;;;;;;17.55;48.76;103151.28;143715;682;48004;-75
2024/01/30 09:43:40;;;;;;;7.35;3.95;;;;;;;18.74;47.39;103157.63;143719;582;47008;-77
2024/01/30 09:46:12;;;;;;;4.90;2.72;;;;;;;17.80;46.80;103143.72;143718;606;47004;-75
2024/01/30 09:48:41;;;;;;;6.68;3.17;;;;;;;18.06;46.61;103144.28;143720;670;47006;-75
2024/01/30 09:51:11;;;;;;;4.55;2.62;;;;;;;17.40;46.83;103149.41;143719;618;47006;-79
2024/01/30 09:53:39;;;;;;;6.07;4.03;;;;;;;17.68;46.81;103156.91;143717;621;47008;-75
2024/01/30 09:56:06;;;;;;;4.25;2.85;;;;;;;18.36;44.77;103146.94;143719;647;47004;-77
2024/01/30 09:58:32;;;;;;;4.12;2.40;;;;;;;18.68;44.44;103148.37;143717;575;46006;-76
2024/01/30 10:00:59;;;;;;;3.50;2.00;;;;;;;18.27;42.57;103149.78;143723;581;46006;-76
2024/01/30 10:03:26;;;;;;;3.95;2.47;;;;;;;18.33;42.59;103137.31;143718;585;47010;-77
2024/01/30 10:05:55;;;;;;;4.15;2.20;;;;;;;18.66;42.50;103139.53;143715;592;47004;-78
2024/01/30 10:08:21;;;;;;;3.37;2.55;;;;;;;19.12;41.85;103130.16;143720;779;46006;-78
2024/01/30 10:10:48;;;;;;;2.75;2.22;;;;;;;19.63;41.34;103122.75;143720;760;47004;-78
2024/01/30 10:13:14;;;;;;;2.33;1.70;;;;;;;20.39;41.26;103124.59;143717;581;47006;-76
2024/01/30 10:15:41;;;;;;;2.45;1.60;;;;;;;20.87;39.94;103123.66;143715;973;47004;-77
2024/01/30 10:18:10;;;;;;;2.08;1.37;;;;;;;21.14;39.07;103103.69;143717;986;47006;-76
2024/01/30 10:20:36;;;;;;;2.85;1.65;;;;;;;21.58;37.72;103104.03;143723;739;47002;-79
2024/01/30 10:23:03;;;;;;;4.60;1.98;;;;;;;21.98;38.42;103103.88;143721;759;46023;-80
2024/01/30 10:25:31;;;;;;;4.05;2.10;;;;;;;22.84;37.66;103104.44;143720;580;46924;-77
2024/01/30 10:27:59;;;;;;;2.72;1.67;;;;;;;23.54;34.94;103093.47;143718;575;46006;-77
2024/01/30 10:30:25;;;;;;;1.80;1.00;;;;;;;25.04;33.73;103092.00;143721;763;47002;-76
2024/01/30 10:32:51;;;;;;;3.00;1.73;;;;;;;27.01;32.42;103086.47;143720;579;47007;-77
2024/01/30 10:35:18;;;;;;;2.30;1.60;;;;;;;29.44;29.64;103086.16;143720;576;48924;-76
2024/01/30 10:37:47;;;;;;;2.53;1.58;;;;;;;31.42;27.03;103068.47;143721;567;46006;-76
2024/01/30 10:40:14;;;;;;;3.87;1.52;;;;;;;28.74;27.72;103083.50;143713;573;47002;-75
2024/01/30 10:42:44;;;;;;;2.50;1.70;;;;;;;25.78;29.58;103094.19;143720;633;47013;-77
2024/01/30 10:45:12;;;;;;;3.87;1.90;;;;;;;24.07;30.63;103073.63;143719;580;47006;-75
2024/01/30 10:47:41;;;;;;;3.47;1.70;;;;;;;23.38;32.21;103101.25;143717;661;47008;-73
2024/01/30 10:50:10;;;;;;;2.83;1.60;;;;;;;23.20;31.78;103090.22;143723;598;47002;-73
2024/01/30 10:52:37;;;;;;;4.75;1.55;;;;;;;22.74;32.94;103078.59;143718;689;47010;-74
2024/01/30 10:55:08;;;;;;;2.47;1.50;;;;;;;22.54;32.82;103088.66;143719;568;47006;-73
2024/01/30 10:57:38;;;;;;;6.20;2.65;;;;;;;22.78;32.71;103088.88;143720;572;46926;-74
2024/01/30 11:00:12;;;;;;;3.53;1.60;;;;;;;22.73;33.71;103087.87;143720;627;47006;-74
2024/01/30 11:02:41;;;;;;;1.90;1.12;;;;;;;22.51;31.03;103080.87;143710;568;47010;-73
2024/01/30 11:05:09;;;;;;;2.50;2.15;;;;;;;22.30;30.51;103068.38;143713;584;47006;-75
2024/01/30 11:07:35;;;;;;;3.45;2.20;;;;;;;22.51;30.89;103074.56;143721;583;46008;-76
2024/01/30 11:10:04;;;;;;;4.55;2.92;;;;;;;22.76;30.97;103076.47;143716;573;48008;-74
2024/01/30 11:12:34;;;;;;;3.45;2.22;;;;;;;23.00;30.83;103059.22;143719;578;47013;-73
2024/01/30 11:15:13;;;;;;;3.20;1.83;;;;;;;23.55;31.21;103054.84;143719;578;46010;-75
2024/01/30 11:17:52;;;;;;;8.50;3.17;;;;;;;24.60;29.93;103073.87;143721;687;46008;-75
2024/01/30 11:20:32;;;;;;;3.80;2.30;;;;;;;25.42;29.43;103064.00;143720;590;46008;-75
2024/01/30 11:22:59;;;;;;;2.60;2.00;;;;;;;25.41;29.24;103075.25;143717;586;47924;-74
2024/01/30 11:25:26;;;;;;;1.35;1.10;;;;;;;25.37;29.15;103054.78;143719;577;47004;-76
2024/01/30 11:27:56;;;;;;;3.40;2.55;;;;;;;25.72;29.81;103048.38;143721;606;47008;-76
2024/01/30 11:30:26;;;;;;;3.10;2.42;;;;;;;25.63;29.99;103072.69;143715;598;47006;-75
2024/01/30 11:33:11;;;;;;;4.78;2.50;;;;;;;25.48;29.94;103058.62;143722;630;47004;-75
2024/01/30 11:35:41;;;;;;;3.70;3.30;;;;;;;24.11;30.82;103042.97;143714;567;47006;-77
2024/01/30 11:38:09;;;;;;;3.35;2.45;;;;;;;23.00;31.70;103039.16;143722;586;46008;-79
2024/01/30 11:40:38;;;;;;;4.78;3.47;;;;;;;21.84;32.38;103032.00;143720;634;48002;-73
2024/01/30 11:43:06;;;;;;;2.95;1.87;;;;;;;21.07;33.38;103009.94;143714;593;47010;-77
2024/01/30 11:45:34;;;;;;;3.78;2.67;;;;;;;20.51;34.05;103010.16;143720;907;47004;-75
2024/01/30 11:48:03;;;;;;;4.82;2.72;;;;;;;20.49;34.68;103008.69;143720;591;47009;-74
2024/01/30 11:50:30;;;;;;;3.25;2.12;;;;;;;19.86;34.62;103010.63;143714;983;47004;-79
2024/01/30 11:52:57;;;;;;;3.75;3.10;;;;;;;18.97;35.47;103004.12;143719;982;47010;-76
2024/01/30 11:55:24;;;;;;;6.45;2.40;;;;;;;18.81;35.41;103013.41;143712;573;47006;-80
2024/01/30 11:57:50;;;;;;;3.97;2.72;;;;;;;18.77;35.71;103027.44;143716;675;46926;-79
2024/01/30 12:00:18;;;;;;;6.97;2.85;;;;;;;18.91;35.71;103020.19;143724;588;47002;-80
2024/01/30 12:02:50;;;;;;;5.03;3.37;;;;;;;18.55;36.66;103017.59;143720;597;47012;-80
2024/01/30 12:05:16;;;;;;;3.62;2.60;;;;;;;18.00;37.62;103027.09;143719;568;47006;-78
2024/01/30 12:07:46;;;;;;;6.15;3.67;;;;;;;17.71;38.12;103017.94;143718;585;46925;-79
2024/01/30 12:10:16;;;;;;;4.22;3.40;;;;;;;17.70;38.03;103037.16;143719;574;47005;-80
2024/01/30 12:12:45;;;;;;;4.07;2.67;;;;;;;17.63;38.34;103045.25;143720;618;47013;-75
2024/01/30 12:15:12;;;;;;;3.92;2.80;;;;;;;17.34;37.90;103025.19;143718;581;47006;-75
2024/01/30 12:17:42;;;;;;;4.32;3.47;;;;;;;17.53;38.49;103021.06;143715;636;47008;-75
2024/01/30 12:20:13;;;;;;;7.40;3.83;;;;;;;17.49;38.16;103025.19;143716;582;47006;-80
2024/01/30 12:22:41;;;;;;;7.90;4.15;;;;;;;17.65;38.21;103023.28;143716;590;46024;-78
2024/01/30 12:25:15;;;;;;;3.50;2.62;;;;;;;17.63;37.71;103022.63;143718;568;47007;-76
2024/01/30 12:27:50;;;;;;;2.50;1.85;;;;;;;17.74;37.71;103033.00;143721;595;46008;-79
2024/01/30 12:30:17;;;;;;;6.55;3.30;;;;;;;17.77;38.30;103019.03;143721;576;47012;-83
2024/01/30 12:32:47;;;;;;;4.57;2.30;;;;;;;17.75;38.79;103047.47;143721;611;47010;-78
2024/01/30 12:35:18;;;;;;;3.40;2.45;;;;;;;17.74;39.02;103024.84;143715;567;47006;-77
2024/01/30 12:37:45;;;;;;;2.72;1.73;;;;;;;17.77;38.04;103029.09;143719;628;47008;-78
2024/01/30 12:40:14;;;;;;;3.20;1.95;;;;;;;17.81;38.19;103030.41;143718;603;47006;-81
2024/01/30 12:42:46;;;;;;;4.05;2.55;;;;;;;17.88;39.23;103020.44;143720;582;47010;-80
2024/01/30 12:45:14;;;;;;;4.07;2.03;;;;;;;17.80;39.62;103031.44;143713;588;47006;-75
2024/01/30 12:47:41;;;;;;;2.92;2.40;;;;;;;17.84;39.66;103038.16;143719;607;47009;-75
2024/01/30 12:50:07;;;;;;;4.60;2.70;;;;;;;17.77;39.25;103048.94;143718;603;47006;-76
2024/01/30 12:52:35;;;;;;;5.15;2.60;;;;;;;17.53;39.74;103047.37;143716;580;47012;-75
2024/01/30 12:55:01;;;;;;;2.40;1.75;;;;;;;17.51;40.97;103050.31;143718;581;47006;-81
2024/01/30 12:57:28;;;;;;;8.70;2.55;;;;;;;17.50;42.25;103037.75;143721;636;46008;-79
2024/01/30 12:59:54;;;;;;;4.03;2.35;;;;;;;17.26;41.50;103020.69;143720;595;47006;-80
2024/01/30 13:02:22;;;;;;;3.05;2.12;;;;;;;17.21;42.27;103025.81;143713;604;47012;-75
2024/01/30 13:04:48;;;;;;;4.22;2.62;;;;;;;17.13;41.47;103007.75;143718;573;47006;-74
2024/01/30 13:07:15;;;;;;;7.53;6.05;;;;;;;16.88;41.93;103012.56;143716;602;47008;-74
2024/01/30 13:09:41;;;;;;;14.13;9.38;;;;;;;16.94;42.87;103006.41;143717;578;47004;-80
2024/01/30 13:12:08;;;;;;;6.93;5.12;;;;;;;16.95;42.55;103023.56;143714;567;47010;-81
2024/01/30 13:14:34;;;;;;;6.90;4.72;;;;;;;16.79;43.95;103028.06;143719;600;47006;-80
2024/01/30 13:17:01;;;;;;;3.47;1.90;;;;;;;16.44;45.68;103005.16;143722;604;47008;-81
2024/01/30 13:19:27;;;;;;;10.35;5.90;;;;;;;16.14;47.35;103007.75;143719;596;47004;-81
2024/01/30 13:21:54;;;;;;;5.90;4.10;;;;;;;15.93;48.03;103002.94;143713;610;47010;-81
2024/01/30 13:24:21;;;;;;;5.75;4.05;;;;;;;15.82;48.98;102999.59;143719;621;47007;-79
2024/01/30 13:26:48;;;;;;;4.70;3.45;;;;;;;15.64;48.69;103005.25;143718;576;46926;-80